Time;durP1;ratioP1;P1;durP2;ratioP2;P2;SDS_P1;SDS_P2;PMS_P1;PMS_P2;Temp;Humidity;BMP_temperature;BMP_pressure;BME280_temperature;BME280_humidity;BME280_pressure;Samples;Min_cycle;Max_cycle;Signal;HPM_P1;HPM_P2
2023/08/20 00:04:51;;;;;;;16.40;13.93;;;;;;;21.04;94.53;99749.63;4956444;28;20054;-74
2023/08/20 00:07:44;;;;;;;25.35;15.32;;;;;;;21.10;94.61;99727.25;4922819;28;20150;-75
2023/08/20 00:10:14;;;;;;;20.85;14.73;;;;;;;21.00;94.54;99716.59;4931876;28;20066;-74
2023/08/20 00:12:40;;;;;;;16.63;13.85;;;;;;;21.01;94.32;99725.56;4923028;28;20067;-75
2023/08/20 00:15:06;;;;;;;19.95;14.70;;;;;;;21.01;94.53;99706.59;4939766;28;20046;-76
2023/08/20 00:17:36;;;;;;;23.05;13.88;;;;;;;21.00;94.76;99719.28;4947236;28;20042;-74
2023/08/20 00:22:55;;;;;;;23.33;14.50;;;;;;;20.99;94.99;99714.88;4935895;28;20058;-74
2023/08/20 00:25:20;;;;;;;20.05;13.23;;;;;;;20.99;95.05;99714.06;4930239;28;20092;-77
2023/08/20 00:27:47;;;;;;;19.42;14.27;;;;;;;20.98;95.25;99706.97;4959779;28;20045;-77
2023/08/20 00:30:15;;;;;;;16.58;14.43;;;;;;;20.97;95.37;99722.38;4939306;28;20046;-75
2023/08/20 00:32:41;;;;;;;18.75;13.82;;;;;;;20.91;95.59;99701.38;4953882;28;20050;-76
2023/08/20 00:35:08;;;;;;;19.13;14.77;;;;;;;20.90;95.35;99705.09;4959551;28;20042;-76
2023/08/20 00:37:41;;;;;;;19.50;13.93;;;;;;;20.88;95.49;99711.75;4957636;28;20070;-79
2023/08/20 00:40:10;;;;;;;18.40;13.10;;;;;;;20.87;95.68;99689.22;4938459;28;20047;-78
2023/08/20 00:43:03;;;;;;;19.40;14.02;;;;;;;20.87;95.69;99693.78;4953586;28;20053;-77
2023/08/20 00:45:30;;;;;;;21.08;14.02;;;;;;;20.85;95.79;99674.13;4921088;28;20065;-74
2023/08/20 00:48:00;;;;;;;22.83;15.63;;;;;;;20.82;95.32;99685.31;4952810;28;20042;-74
2023/08/20 00:50:25;;;;;;;18.20;14.30;;;;;;;20.86;94.95;99681.25;4955272;28;20042;-74
2023/08/20 00:55:43;;;;;;;22.48;13.45;;;;;;;20.89;95.35;99697.13;4951755;28;20050;-74
2023/08/20 00:58:20;;;;;;;20.52;14.02;;;;;;;20.93;95.75;99680.38;4938162;28;20046;-73
2023/08/20 01:00:47;;;;;;;20.88;14.05;;;;;;;20.90;95.75;99667.16;4938501;28;20065;-74
2023/08/20 01:03:37;;;;;;;22.63;14.43;;;;;;;20.97;96.11;99678.16;4942736;28;20054;-75
2023/08/20 01:06:41;;;;;;;19.83;13.82;;;;;;;20.98;96.08;99674.44;4956875;28;20038;-72
2023/08/20 01:09:21;;;;;;;20.42;14.82;;;;;;;20.91;96.04;99674.28;4858048;29;20055;-72
2023/08/20 01:11:58;;;;;;;27.58;14.40;;;;;;;20.90;96.16;99677.16;4842324;29;20049;-75
2023/08/20 01:14:23;;;;;;;24.50;14.93;;;;;;;20.85;96.01;99672.28;4825962;29;20060;-75
2023/08/20 01:16:49;;;;;;;17.60;14.40;;;;;;;20.80;95.63;99687.34;4859678;29;20041;-69
2023/08/20 01:19:18;;;;;;;18.38;13.88;;;;;;;20.77;95.42;99679.59;4856016;29;20056;-74
2023/08/20 01:22:08;;;;;;;19.73;15.07;;;;;;;20.75;95.37;99671.63;4854673;29;20044;-70
2023/08/20 01:25:00;;;;;;;21.77;14.75;;;;;;;20.70;95.17;99659.59;4841106;29;20061;-71
2023/08/20 01:27:57;;;;;;;20.75;15.25;;;;;;;20.61;95.41;99672.34;4858292;29;20060;-71
2023/08/20 01:30:27;;;;;;;20.95;15.48;;;;;;;20.53;96.08;99667.81;4815387;29;20053;-71
2023/08/20 01:33:21;;;;;;;21.33;15.43;;;;;;;20.52;96.53;99663.41;4846203;29;20071;-71
2023/08/20 01:35:46;;;;;;;20.48;15.45;;;;;;;20.52;97.13;99700.47;4858840;29;20047;-70
2023/08/20 01:38:15;;;;;;;18.42;15.55;;;;;;;20.54;97.57;99695.72;4827336;29;20040;-71
2023/08/20 01:40:41;;;;;;;20.23;15.02;;;;;;;20.58;98.14;99672.69;4858356;29;20037;-71
2023/08/20 01:43:07;;;;;;;21.30;15.52;;;;;;;20.59;98.49;99669.81;4842371;29;20056;-71
2023/08/20 01:45:38;;;;;;;18.67;15.50;;;;;;;20.62;98.48;99680.31;4875088;28;20062;-71
2023/08/20 01:48:04;;;;;;;20.00;14.40;;;;;;;20.64;98.78;99678.28;4936386;28;20436;-71
2023/08/20 01:50:30;;;;;;;22.75;14.77;;;;;;;20.66;98.98;99675.34;4905566;28;20520;-72
2023/08/20 01:52:57;;;;;;;23.35;15.68;;;;;;;20.66;98.97;99675.34;4906340;28;20051;-71
2023/08/20 01:55:22;;;;;;;22.20;16.30;;;;;;;20.65;99.05;99679.13;4913858;29;20050;-70
2023/08/20 01:57:47;;;;;;;26.35;16.50;;;;;;;20.66;98.73;99681.63;4902785;28;20065;-74
2023/08/20 02:00:14;;;;;;;20.05;15.48;;;;;;;20.63;98.50;99709.09;4917306;29;20058;-70
2023/08/20 02:02:40;;;;;;;20.88;16.15;;;;;;;20.65;98.39;99704.31;4920352;29;20051;-71
2023/08/20 02:05:07;;;;;;;22.52;15.35;;;;;;;20.65;98.09;99679.13;4915423;28;20505;-71
2023/08/20 02:07:33;;;;;;;18.70;14.45;;;;;;;20.65;97.93;99682.63;4939216;28;20045;-72
2023/08/20 02:10:00;;;;;;;23.02;15.80;;;;;;;20.64;97.78;99682.84;4905719;28;20047;-67
2023/08/20 02:12:27;;;;;;;22.52;15.43;;;;;;;20.61;97.23;99689.44;4928042;28;20069;-71
2023/08/20 02:14:53;;;;;;;22.70;15.52;;;;;;;20.59;96.64;99686.06;4940101;28;20050;-73
2023/08/20 02:17:23;;;;;;;24.05;16.50;;;;;;;20.59;95.96;99686.06;4925551;28;20362;-73
2023/08/20 02:19:49;;;;;;;21.17;14.98;;;;;;;20.59;96.11;99696.03;4907867;28;20051;-72
2023/08/20 02:22:14;;;;;;;20.73;15.82;;;;;;;20.60;96.15;99693.16;4940828;28;20049;-72
2023/08/20 02:24:40;;;;;;;22.00;14.52;;;;;;;20.60;96.25;99698.59;4958014;28;20050;-71
2023/08/20 02:27:08;;;;;;;19.58;14.68;;;;;;;20.60;96.33;99690.47;4957930;28;20049;-71
2023/08/20 02:29:34;;;;;;;23.65;15.98;;;;;;;20.60;96.50;99678.78;4939240;28;20446;-71
2023/08/20 02:31:59;;;;;;;22.33;15.23;;;;;;;20.62;96.50;99684.88;4958363;28;20046;-72
2023/08/20 02:34:25;;;;;;;23.65;16.92;;;;;;;20.62;96.47;99684.88;4924115;28;20805;-72
2023/08/20 02:36:52;;;;;;;19.58;15.20;;;;;;;20.65;96.90;99689.94;4929868;28;20063;-72
2023/08/20 02:39:20;;;;;;;22.70;16.85;;;;;;;20.66;96.77;99687.03;4922149;28;20832;-71
2023/08/20 02:42:10;;;;;;;24.13;15.68;;;;;;;20.72;96.91;99684.66;4936492;28;20038;-71
2023/08/20 02:44:35;;;;;;;19.58;16.13;;;;;;;20.74;96.69;99677.22;4920783;28;20425;-71
2023/08/20 02:47:02;;;;;;;19.35;16.25;;;;;;;20.78;96.62;99701.06;4905472;28;20532;-71
2023/08/20 02:49:30;;;;;;;20.67;16.35;;;;;;;20.86;96.36;99700.22;4938822;28;20053;-70
2023/08/20 02:51:57;;;;;;;21.95;16.60;;;;;;;20.95;96.08;99691.03;4938724;28;20043;-71
2023/08/20 02:54:22;;;;;;;26.95;20.30;;;;;;;21.05;95.50;99674.56;4924743;28;20055;-71
2023/08/20 02:56:48;;;;;;;26.42;17.77;;;;;;;21.19;93.76;99682.00;4938558;28;20042;-70
2023/08/20 02:59:13;;;;;;;27.42;18.50;;;;;;;21.34;92.62;99697.31;4936725;28;20061;-72
2023/08/20 03:01:39;;;;;;;26.20;16.88;;;;;;;21.53;91.46;99679.78;4920789;28;20043;-71
2023/08/20 03:04:05;;;;;;;29.33;19.67;;;;;;;21.71;90.56;99685.75;4921353;28;20051;-71
2023/08/20 03:06:32;;;;;;;22.45;17.08;;;;;;;21.88;88.38;99678.34;4920998;28;20050;-72
2023/08/20 03:09:01;;;;;;;20.75;17.73;;;;;;;21.97;87.76;99696.25;4938286;28;20057;-71
2023/08/20 03:11:30;;;;;;;28.92;18.45;;;;;;;22.03;86.33;99698.28;4904590;28;20454;-71
2023/08/20 03:13:55;;;;;;;24.20;18.50;;;;;;;22.06;85.17;99714.19;4905692;28;20517;-71
2023/08/20 03:16:21;;;;;;;23.92;18.90;;;;;;;22.09;84.88;99705.69;4938033;28;20046;-71
2023/08/20 03:18:46;;;;;;;23.40;18.52;;;;;;;22.10;83.78;99701.13;4889363;28;20433;-71
2023/08/20 03:21:11;;;;;;;26.02;18.23;;;;;;;22.06;84.02;99713.34;4901111;29;20051;-75
2023/08/20 03:23:40;;;;;;;27.27;19.23;;;;;;;21.93;83.66;99713.06;4886758;29;20569;-73
2023/08/20 03:26:07;;;;;;;26.30;19.40;;;;;;;21.73;83.38;99713.56;4919132;29;20047;-74
2023/08/20 03:28:40;;;;;;;22.73;19.45;;;;;;;21.50;84.20;99725.41;4886726;29;20058;-75
2023/08/20 03:31:07;;;;;;;24.25;18.45;;;;;;;21.25;85.92;99739.06;4915210;28;20035;-73
2023/08/20 03:34:02;;;;;;;23.15;17.70;;;;;;;20.95;87.60;99734.41;4931164;28;20054;-73
2023/08/20 03:36:32;;;;;;;26.75;18.27;;;;;;;20.74;89.60;99731.41;4904594;28;20498;-73
2023/08/20 03:38:58;;;;;;;22.50;17.88;;;;;;;20.57;91.20;99742.25;4938072;28;20039;-74
2023/08/20 03:41:27;;;;;;;26.42;19.83;;;;;;;20.42;92.87;99749.41;4937872;28;20042;-73
2023/08/20 03:43:53;;;;;;;24.50;17.92;;;;;;;20.32;94.83;99754.06;4937939;28;20058;-74
2023/08/20 03:46:20;;;;;;;25.45;18.17;;;;;;;20.22;96.38;99731.75;4921002;28;20524;-73
2023/08/20 03:48:45;;;;;;;26.58;19.20;;;;;;;20.12;97.67;99698.59;4937667;28;20046;-73
2023/08/20 03:51:13;;;;;;;24.98;18.42;;;;;;;20.08;98.63;99702.66;4920223;28;20047;-73
2023/08/20 03:53:43;;;;;;;29.63;20.50;;;;;;;20.06;100.00;99677.63;4919561;28;20055;-74
2023/08/20 03:56:13;;;;;;;34.88;19.02;;;;;;;19.98;100.00;99664.91;4920381;28;20049;-74
2023/08/20 03:58:44;;;;;;;26.38;18.10;;;;;;;19.94;100.00;99679.81;4920033;28;20047;-74
2023/08/20 04:01:16;;;;;;;22.10;17.55;;;;;;;19.85;100.00;99633.00;4937297;28;20058;-75
2023/08/20 04:03:41;;;;;;;24.58;17.83;;;;;;;19.81;100.00;99642.44;4904021;28;20047;-75
2023/08/20 04:06:07;;;;;;;21.27;16.63;;;;;;;19.76;100.00;99638.53;4920161;28;20046;-75
2023/08/20 04:08:32;;;;;;;21.52;16.92;;;;;;;19.73;100.00;99622.66;4903649;28;20050;-72
2023/08/20 04:10:59;;;;;;;22.65;17.35;;;;;;;19.67;100.00;99645.81;4920090;28;20053;-73
2023/08/20 04:13:26;;;;;;;19.60;16.42;;;;;;;19.60;100.00;99638.53;4901129;28;20520;-72
2023/08/20 04:15:52;;;;;;;27.33;18.50;;;;;;;19.53;100.00;99655.41;4938956;28;20531;-73
2023/08/20 04:18:17;;;;;;;17.85;15.10;;;;;;;19.52;100.00;99621.31;4921952;28;20057;-72
2023/08/20 04:20:46;;;;;;;22.70;16.75;;;;;;;19.30;100.00;99627.28;4939014;28;20057;-72
2023/08/20 04:23:37;;;;;;;28.25;17.92;;;;;;;19.09;100.00;99635.84;4922441;28;20054;-73
2023/08/20 04:26:03;;;;;;;22.33;17.67;;;;;;;18.96;100.00;99651.66;4922809;28;20057;-72
2023/08/20 04:28:28;;;;;;;22.95;16.00;;;;;;;18.94;100.00;99642.91;4923043;28;20046;-73
2023/08/20 04:30:56;;;;;;;24.27;17.52;;;;;;;18.91;100.00;99643.22;4956267;28;20054;-73
2023/08/20 04:33:29;;;;;;;23.02;16.27;;;;;;;18.81;100.00;99664.97;4922472;28;20050;-74
2023/08/20 04:35:54;;;;;;;21.83;17.33;;;;;;;18.79;100.00;99636.41;4919700;28;20441;-73
2023/08/20 04:38:20;;;;;;;28.35;17.02;;;;;;;18.88;100.00;99667.00;4936053;28;20034;-74
2023/08/20 04:40:49;;;;;;;28.38;21.27;;;;;;;19.01;100.00;99681.75;4921877;28;20794;-73
2023/08/20 04:43:15;;;;;;;24.10;18.27;;;;;;;19.13;100.00;99695.84;4922358;28;20061;-74
2023/08/20 04:45:43;;;;;;;23.05;18.92;;;;;;;19.24;100.00;99682.03;4923041;28;20500;-75
2023/08/20 04:48:11;;;;;;;19.55;15.65;;;;;;;19.37;100.00;99673.44;4938640;28;20042;-73
2023/08/20 04:50:41;;;;;;;25.48;17.92;;;;;;;19.46;100.00;99675.16;4938798;28;20053;-74
2023/08/20 04:53:08;;;;;;;24.88;17.48;;;;;;;19.57;100.00;99670.31;4939428;28;20049;-75
2023/08/20 04:55:35;;;;;;;19.40;15.77;;;;;;;19.68;100.00;99684.53;4923358;28;20412;-73
2023/08/20 04:58:35;;;;;;;23.08;17.65;;;;;;;19.89;100.00;99661.38;4940406;28;20408;-74
2023/08/20 05:01:05;;;;;;;19.27;15.88;;;;;;;19.91;100.00;99643.13;4939191;28;20501;-74
2023/08/20 05:03:31;;;;;;;26.13;16.77;;;;;;;20.05;100.00;99655.13;4923576;28;20050;-76
2023/08/20 05:05:57;;;;;;;22.58;16.38;;;;;;;20.05;100.00;99647.00;4939771;28;20050;-74
2023/08/20 05:08:24;;;;;;;20.40;15.65;;;;;;;20.12;100.00;99672.38;4939044;28;20533;-74
2023/08/20 05:10:51;;;;;;;22.75;16.83;;;;;;;20.24;100.00;99621.44;4938668;28;20046;-73
2023/08/20 05:13:21;;;;;;;22.58;15.73;;;;;;;20.38;100.00;99661.38;4910236;28;20051;-74
2023/08/20 05:15:49;;;;;;;20.25;14.27;;;;;;;20.50;100.00;99660.00;4919092;28;20065;-73
2023/08/20 05:18:15;;;;;;;17.70;14.38;;;;;;;20.66;100.00;99675.34;4919483;28;20050;-73
2023/08/20 05:20:45;;;;;;;16.23;14.10;;;;;;;20.89;100.00;99672.75;4920928;28;20058;-73
2023/08/20 05:23:11;;;;;;;19.42;14.85;;;;;;;21.30;100.00;99647.19;4935985;28;20041;-71
2023/08/20 05:25:37;;;;;;;17.55;14.07;;;;;;;21.79;97.55;99627.84;4906437;28;20856;-71
2023/08/20 05:28:02;;;;;;;17.20;13.45;;;;;;;22.32;94.56;99623.34;4922285;28;20062;-72
2023/08/20 05:30:28;;;;;;;15.07;12.93;;;;;;;22.77;91.40;99620.50;4923576;28;20043;-72
2023/08/20 05:32:55;;;;;;;22.17;13.50;;;;;;;22.98;86.98;99616.16;4907231;28;20485;-73
2023/08/20 05:35:47;;;;;;;18.55;13.85;;;;;;;23.15;84.86;99612.16;4940685;28;20042;-73
2023/08/20 05:41:06;;;;;;;16.80;13.68;;;;;;;23.13;82.76;99627.88;4940045;28;20042;-75
2023/08/20 05:43:36;;;;;;;16.67;12.95;;;;;;;23.18;81.41;99606.34;4907085;28;20074;-75
2023/08/20 05:46:05;;;;;;;16.95;13.93;;;;;;;23.08;81.29;99594.94;4906452;28;20402;-75
2023/08/20 05:48:31;;;;;;;16.08;13.63;;;;;;;22.94;80.55;99595.81;4938489;28;20054;-75
2023/08/20 05:50:57;;;;;;;17.52;13.23;;;;;;;22.61;79.31;99598.91;4938852;28;20050;-74
2023/08/20 05:53:26;;;;;;;18.40;12.90;;;;;;;22.56;80.83;99623.09;4922703;28;20043;-73
2023/08/20 05:55:52;;;;;;;21.25;14.80;;;;;;;22.44;80.94;99603.69;4922316;28;20502;-72
2023/08/20 05:58:19;;;;;;;18.10;13.55;;;;;;;22.31;79.94;99613.50;4903365;29;20399;-73
2023/08/20 06:00:46;;;;;;;19.42;13.50;;;;;;;22.20;81.43;99589.53;4872151;29;20051;-74
2023/08/20 06:03:13;;;;;;;19.23;13.57;;;;;;;22.63;82.25;99591.41;4887720;29;20054;-74
2023/08/20 06:05:39;;;;;;;15.93;12.13;;;;;;;23.49;81.19;99587.84;4907843;28;20402;-73
2023/08/20 06:08:30;;;;;;;19.38;12.88;;;;;;;24.82;76.08;99587.88;4921787;28;20058;-73
2023/08/20 06:11:01;;;;;;;21.17;11.45;;;;;;;26.14;71.05;99595.56;4923099;28;20413;-74
2023/08/20 06:13:30;;;;;;;18.08;12.13;;;;;;;27.28;63.44;99571.28;4935657;28;20042;-74
2023/08/20 06:15:57;;;;;;;15.85;11.85;;;;;;;28.26;61.63;99574.38;4940944;28;20050;-73
2023/08/20 06:18:23;;;;;;;15.23;12.82;;;;;;;29.08;59.09;99567.56;4958555;28;20595;-75
2023/08/20 06:20:50;;;;;;;12.65;11.32;;;;;;;29.50;57.14;99571.22;4958641;28;20069;-72
2023/08/20 06:23:16;;;;;;;13.75;11.00;;;;;;;29.27;57.17;99555.47;4941022;28;20049;-73
2023/08/20 06:25:41;;;;;;;14.23;12.20;;;;;;;29.03;57.36;99560.00;4941355;28;20050;-72
2023/08/20 06:28:09;;;;;;;14.60;11.30;;;;;;;29.04;56.55;99589.16;4958843;28;20046;-73
2023/08/20 06:31:04;;;;;;;13.32;10.93;;;;;;;29.29;56.18;99568.97;4965844;28;20057;-74
2023/08/20 06:33:30;;;;;;;19.05;13.38;;;;;;;29.41;55.78;99562.50;4941104;28;20055;-73
2023/08/20 06:35:57;;;;;;;12.02;10.75;;;;;;;29.18;55.84;99552.22;4939714;28;20050;-72
2023/08/20 06:38:22;;;;;;;13.73;11.75;;;;;;;28.85;55.02;99551.81;4943864;28;20050;-75
2023/08/20 06:40:49;;;;;;;14.50;11.57;;;;;;;28.63;55.64;99558.81;4966266;28;20046;-74
2023/08/20 06:43:42;;;;;;;14.73;11.25;;;;;;;29.29;56.18;99545.09;4942871;28;20046;-75
2023/08/20 06:46:09;;;;;;;14.43;11.25;;;;;;;29.80;54.63;99549.19;4961802;28;20050;-73
2023/08/20 06:48:35;;;;;;;15.45;11.30;;;;;;;29.90;53.22;99550.31;4958797;28;20529;-73
2023/08/20 06:51:20;;;;;;;12.73;11.40;;;;;;;30.04;53.05;99511.59;4958681;28;20053;-72
2023/08/20 06:53:47;;;;;;;12.93;11.02;;;;;;;30.20;53.82;99538.38;4940493;28;20058;-71
2023/08/20 06:56:13;;;;;;;14.57;10.48;;;;;;;30.81;52.17;99529.59;4957932;28;20781;-73
2023/08/20 06:58:43;;;;;;;11.02;9.65;;;;;;;31.33;50.41;99538.63;4957547;28;20049;-72
2023/08/20 07:01:17;;;;;;;9.65;8.65;;;;;;;31.82;48.16;99541.75;4957644;28;20050;-74
2023/08/20 07:03:44;;;;;;;10.32;7.63;;;;;;;32.45;47.13;99526.72;4940918;28;20050;-75
2023/08/20 07:06:59;;;;;;;10.32;8.05;;;;;;;33.26;45.31;99479.97;4947667;28;20061;-72
2023/08/20 07:09:49;;;;;;;8.50;7.68;;;;;;;33.77;44.30;99482.13;4957495;28;20508;-74
2023/08/20 07:12:16;;;;;;;8.93;7.97;;;;;;;34.39;42.71;99491.69;4957357;28;20525;-73
2023/08/20 07:14:42;;;;;;;9.25;7.70;;;;;;;35.12;41.14;99484.22;4957516;28;20046;-72
2023/08/20 07:17:34;;;;;;;9.50;7.18;;;;;;;36.03;39.11;99524.00;4957674;28;20783;-73
2023/08/20 07:20:00;;;;;;;9.68;7.75;;;;;;;36.73;37.11;99521.38;4923640;28;20057;-74
2023/08/20 07:22:27;;;;;;;8.73;7.55;;;;;;;37.24;36.13;99535.91;4957109;28;20046;-74
2023/08/20 07:25:02;;;;;;;13.70;10.80;;;;;;;38.07;35.28;99527.53;4957293;28;20046;-73
2023/08/20 07:27:29;;;;;;;9.48;7.95;;;;;;;38.52;34.11;99528.16;4956137;28;20046;-73
2023/08/20 07:29:54;;;;;;;9.07;8.18;;;;;;;38.76;33.54;99517.03;4940100;28;20050;-73
2023/08/20 07:32:19;;;;;;;9.02;8.13;;;;;;;38.85;33.01;99509.66;4907408;28;20425;-74
2023/08/20 07:34:44;;;;;;;8.75;7.72;;;;;;;38.97;32.52;99520.41;4956654;28;20057;-74
2023/08/20 07:37:12;;;;;;;9.70;8.80;;;;;;;39.07;31.75;99511.91;4938987;28;20050;-74
2023/08/20 07:39:41;;;;;;;8.15;7.35;;;;;;;39.73;31.23;99514.53;4957172;28;20118;-74
2023/08/20 07:42:06;;;;;;;9.23;8.35;;;;;;;40.72;30.53;99502.19;4957085;28;20049;-74
2023/08/20 07:44:31;;;;;;;9.57;8.70;;;;;;;41.69;29.41;99505.28;4957077;28;20050;-75
2023/08/20 07:47:05;;;;;;;9.20;8.38;;;;;;;42.41;28.00;99493.06;4956260;28;20058;-74
2023/08/20 07:49:34;;;;;;;9.63;8.63;;;;;;;43.07;26.31;99507.94;4939974;28;20416;-74
2023/08/20 07:52:26;;;;;;;9.57;8.77;;;;;;;43.70;26.23;99496.13;4943403;28;20515;-74
2023/08/20 07:54:52;;;;;;;10.38;9.40;;;;;;;44.19;25.65;99490.25;4939530;28;20050;-75
2023/08/20 07:57:18;;;;;;;10.48;9.57;;;;;;;44.91;24.78;99481.69;4922781;28;20416;-75
2023/08/20 07:59:43;;;;;;;12.30;11.15;;;;;;;45.55;24.05;99478.56;4956645;28;20050;-75
2023/08/20 08:02:11;;;;;;;10.85;9.95;;;;;;;46.24;23.36;99484.31;4938521;28;20420;-76
2023/08/20 08:05:01;;;;;;;;;;;;;;;48.16;21.92;99481.81;4957110;28;20061;-74
2023/08/20 08:07:52;;;;;;;11.75;10.63;;;;;;;47.61;22.34;99483.50;4956901;28;19921;-76
2023/08/20 08:10:18;;;;;;;13.00;11.70;;;;;;;47.86;22.19;99491.88;4938517;28;20054;-75
2023/08/20 08:12:48;;;;;;;12.77;11.77;;;;;;;47.71;21.51;99476.50;4938509;28;20485;-74
2023/08/20 08:15:13;;;;;;;12.80;11.80;;;;;;;47.57;22.29;99471.25;4922373;28;20516;-74
2023/08/20 08:17:39;;;;;;;12.48;11.48;;;;;;;47.11;22.72;99463.41;4956555;28;20059;-75
2023/08/20 08:20:05;;;;;;;12.43;11.43;;;;;;;46.98;22.69;99465.38;4956668;28;20042;-76
2023/08/20 08:22:32;;;;;;;13.32;12.30;;;;;;;46.30;23.65;99444.63;4922404;28;20042;-75
2023/08/20 08:24:59;;;;;;;14.82;11.68;;;;;;;45.60;24.22;99444.56;4922504;28;20061;-75
2023/08/20 08:27:29;;;;;;;11.98;11.05;;;;;;;45.47;24.16;99429.59;4922359;28;20508;-75
2023/08/20 08:29:55;;;;;;;12.80;11.82;;;;;;;46.02;23.90;99442.47;4956682;28;20046;-77
2023/08/20 08:32:20;;;;;;;13.85;11.60;;;;;;;45.67;24.69;99444.00;4922895;28;20042;-76
2023/08/20 08:34:47;;;;;;;12.55;11.65;;;;;;;45.44;25.07;99441.53;4958684;28;20057;-76
2023/08/20 08:37:19;;;;;;;11.73;10.52;;;;;;;45.95;24.08;99445.00;4941800;28;20034;-76
2023/08/20 08:39:46;;;;;;;13.15;12.15;;;;;;;45.52;23.95;99429.38;4959587;28;20408;-76
2023/08/20 08:42:40;;;;;;;11.88;10.98;;;;;;;46.46;23.09;99431.47;4959086;28;20043;-75
2023/08/20 08:48:03;;;;;;;15.27;14.07;;;;;;;48.81;20.10;99420.00;4942966;28;20053;-76
2023/08/20 08:50:31;;;;;;;15.38;14.38;;;;;;;49.18;19.15;99411.13;4925124;28;20065;-75
2023/08/20 08:52:59;;;;;;;15.88;14.73;;;;;;;49.45;19.14;99422.19;4939415;28;20433;-76
2023/08/20 08:55:28;;;;;;;15.98;14.98;;;;;;;49.95;18.42;99430.88;4939163;28;20446;-76
2023/08/20 08:57:55;;;;;;;16.92;15.82;;;;;;;50.18;18.06;99428.03;4920575;28;20046;-75
2023/08/20 09:00:20;;;;;;;18.20;16.67;;;;;;;49.64;18.74;99432.75;4923136;28;20058;-76
2023/08/20 09:05:49;;;;;;;16.55;15.50;;;;;;;50.48;17.26;99441.13;4926427;28;20051;-78
2023/08/20 09:08:20;;;;;;;16.17;14.95;;;;;;;50.64;17.41;99426.81;4943685;28;20035;-76
2023/08/20 09:10:46;;;;;;;17.05;16.02;;;;;;;50.95;17.21;99437.03;4919907;28;20498;-75
2023/08/20 09:13:14;;;;;;;17.70;16.60;;;;;;;51.44;16.76;99453.94;4943856;28;20049;-75
2023/08/20 09:16:07;;;;;;;21.48;20.15;;;;;;;52.23;16.47;99438.56;4961202;28;20058;-75
2023/08/20 09:18:44;;;;;;;21.50;20.30;;;;;;;52.26;16.21;99428.44;4962894;28;20057;-75
2023/08/20 09:21:11;;;;;;;22.00;20.42;;;;;;;52.11;15.84;99414.03;4963196;28;20065;-75
2023/08/20 09:27:03;;;;;;;18.58;17.30;;;;;;;50.60;17.19;99406.06;4961073;28;20042;-77
2023/08/20 09:29:50;;;;;;;17.83;16.55;;;;;;;49.96;17.45;99407.84;4962924;28;20397;-76
2023/08/20 09:32:20;;;;;;;15.88;14.77;;;;;;;47.81;18.87;99387.56;4926419;28;20813;-77
2023/08/20 09:35:17;;;;;;;14.32;13.38;;;;;;;46.99;19.34;99390.84;4927026;28;20057;-74
2023/08/20 09:37:44;;;;;;;10.73;9.85;;;;;;;44.58;21.98;99390.72;4943029;28;20038;-75
2023/08/20 09:40:35;;;;;;;10.07;9.38;;;;;;;43.77;22.93;99383.28;4961008;28;20049;-75
2023/08/20 09:43:02;;;;;;;10.18;9.38;;;;;;;42.19;24.30;99373.44;4941150;28;20038;-75
2023/08/20 09:45:28;;;;;;;10.30;9.23;;;;;;;42.05;25.03;99361.53;4909013;28;20054;-74
2023/08/20 09:47:57;;;;;;;10.77;9.75;;;;;;;42.02;25.42;99360.19;4941905;28;20043;-74
2023/08/20 09:50:24;;;;;;;8.40;7.65;;;;;;;41.71;24.66;99367.78;4955322;28;20523;-74
2023/08/20 09:53:03;;;;;;;8.60;7.90;;;;;;;41.24;24.61;99369.28;4943254;28;20043;-74
2023/08/20 09:55:33;;;;;;;8.15;7.35;;;;;;;40.25;25.61;99358.91;4926580;28;20061;-74
2023/08/20 09:58:26;;;;;;;7.97;7.28;;;;;;;39.59;26.41;99378.91;4946147;28;20511;-74
2023/08/20 10:00:52;;;;;;;9.27;7.68;;;;;;;39.10;27.53;99366.31;4959185;28;20057;-73
2023/08/20 10:03:22;;;;;;;9.80;8.65;;;;;;;38.55;28.24;99354.88;4909085;28;20046;-72
2023/08/20 10:06:19;;;;;;;8.02;7.22;;;;;;;38.65;28.90;99367.84;4913452;28;20062;-72
2023/08/20 10:08:46;;;;;;;48.83;44.08;;;;;;;37.78;30.13;99374.44;4937949;28;20507;-72
2023/08/20 10:11:15;;;;;;;10.60;9.60;;;;;;;37.50;30.67;99361.31;4943642;28;20051;-74
2023/08/20 10:13:44;;;;;;;8.80;8.00;;;;;;;37.13;31.54;99363.88;4907620;29;20067;-74
2023/08/20 10:19:05;;;;;;;7.63;6.93;;;;;;;36.38;31.79;99367.66;4908579;29;20054;-73
2023/08/20 10:21:45;;;;;;;7.30;6.60;;;;;;;36.14;32.49;99361.06;4923051;28;20386;-74
2023/08/20 10:24:18;;;;;;;7.00;6.30;;;;;;;35.63;33.23;99366.75;4905771;29;20062;-73
2023/08/20 10:32:52;;;;;;;7.05;6.35;;;;;;;34.68;34.42;99290.78;4940322;28;20385;-75
2023/08/20 10:35:49;;;;;;;7.15;6.45;;;;;;;34.20;35.70;99287.31;4922169;28;20524;-75
2023/08/20 10:38:17;;;;;;;7.22;6.47;;;;;;;33.47;36.58;99277.31;4938280;28;20050;-74
2023/08/20 10:40:59;;;;;;;6.75;6.15;;;;;;;33.44;36.93;99284.19;4902174;28;20066;-74
2023/08/20 10:43:42;;;;;;;8.23;6.78;;;;;;;33.15;38.59;99271.81;4912749;28;20051;-73
2023/08/20 10:46:53;;;;;;;7.65;6.43;;;;;;;33.16;38.59;99276.25;4932438;28;20047;-74
2023/08/20 10:49:41;;;;;;;8.57;7.63;;;;;;;32.79;39.33;99271.53;4920690;28;20043;-74
2023/08/20 10:52:39;;;;;;;8.50;6.65;;;;;;;32.33;39.56;99272.16;4919242;28;20058;-74
2023/08/20 10:55:28;;;;;;;7.75;6.57;;;;;;;32.20;39.97;99272.56;4906061;28;20058;-75
2023/08/20 10:59:20;;;;;;;8.25;6.93;;;;;;;32.13;40.70;99272.75;4895774;28;20050;-74
2023/08/20 11:02:15;;;;;;;8.45;7.47;;;;;;;31.67;41.37;99266.69;4922246;28;20046;-74
2023/08/20 11:05:04;;;;;;;7.75;6.95;;;;;;;31.43;42.31;99273.50;4924982;28;20498;-73
2023/08/20 11:08:07;;;;;;;7.43;6.72;;;;;;;31.14;42.21;99269.22;4931922;28;20062;-73
2023/08/20 11:10:56;;;;;;;8.40;6.88;;;;;;;31.05;43.38;99282.50;4905758;28;20062;-75
2023/08/20 11:13:40;;;;;;;12.20;7.57;;;;;;;30.73;44.09;99270.41;4949967;28;20038;-72
2023/08/20 11:16:12;;;;;;;7.93;6.85;;;;;;;30.46;44.34;99265.56;4943827;28;20417;-71
2023/08/20 11:19:39;;;;;;;7.97;7.18;;;;;;;30.50;44.97;99257.59;4930274;28;20504;-71
2023/08/20 11:22:50;;;;;;;7.70;6.88;;;;;;;30.31;45.38;99254.25;4944027;28;20058;-72
2023/08/20 11:25:47;;;;;;;8.00;7.18;;;;;;;29.91;45.66;99249.59;4918317;28;20054;-72
2023/08/20 11:28:16;;;;;;;9.90;7.47;;;;;;;29.77;47.85;99247.41;4906014;28;20054;-72
2023/08/20 11:33:33;;;;;;;8.50;7.10;;;;;;;29.37;47.33;99239.06;4939303;28;20516;-74
2023/08/20 11:35:59;;;;;;;8.45;7.07;;;;;;;29.18;47.36;99238.38;4923381;28;20058;-73
2023/08/20 11:38:26;;;;;;;9.45;7.25;;;;;;;29.05;48.03;99233.16;4937668;28;20144;-73
2023/08/20 11:40:53;;;;;;;8.43;6.93;;;;;;;28.87;49.11;99240.44;4920496;28;20061;-74
2023/08/20 11:43:18;;;;;;;9.40;7.43;;;;;;;28.71;49.05;99229.28;4937575;28;20054;-73
2023/08/20 11:45:48;;;;;;;8.30;7.30;;;;;;;28.57;49.59;99230.56;4943881;28;20042;-73
2023/08/20 11:48:17;;;;;;;10.20;6.78;;;;;;;28.26;49.30;99232.53;4933899;28;20105;-72
2023/08/20 11:50:44;;;;;;;7.68;5.90;;;;;;;27.92;47.75;99241.41;4921897;28;20429;-72
2023/08/20 11:53:12;;;;;;;12.35;5.30;;;;;;;27.49;47.73;99277.94;4926913;28;20045;-71
2023/08/20 11:55:39;;;;;;;7.63;4.85;;;;;;;27.28;47.04;99303.88;4932775;28;20445;-70
2023/08/20 12:00:57;;;;;;;7.15;4.75;;;;;;;26.64;49.21;99293.22;4939801;28;20049;-69
2023/08/20 12:03:29;;;;;;;9.50;4.78;;;;;;;26.33;50.06;99300.38;4921940;28;20422;-69
2023/08/20 12:05:55;;;;;;;6.53;5.28;;;;;;;25.83;50.96;99299.34;4936853;28;20055;-68
2023/08/20 12:08:24;;;;;;;9.02;4.80;;;;;;;25.45;53.02;99307.41;4936415;28;20045;-70
2023/08/20 12:10:55;;;;;;;6.63;4.50;;;;;;;25.19;54.38;99297.38;4946286;28;20053;-73
2023/08/20 12:13:23;;;;;;;6.50;4.50;;;;;;;25.17;54.52;99309.56;4903175;28;20035;-72
2023/08/20 12:15:50;;;;;;;4.85;4.15;;;;;;;25.24;54.60;99304.94;4925093;28;20047;-72
2023/08/20 12:18:18;;;;;;;7.38;4.97;;;;;;;25.20;55.37;99296.31;4922145;28;20080;-77
2023/08/20 12:23:39;;;;;;;6.45;4.90;;;;;;;25.27;55.59;99320.88;4918379;29;20043;-76